Topisaw, Mississippi
Current Conditions -  °F | °C
As of 8:53 AM on Thursday 23 Oct 2014 (Local Time) from KMCB Reporting Station
Clear Clear  
Wind Chill: 55°   Ceiling: Unl
Heat Index: 55°   Visibility: 10mi
Dew Point: 44°   Wind: 7mph
Humidity: 67%   Direction: 50°NE
Pressure: 30.15"   Gusts: NA
Location:  31.2993°N, 90.4958°W
Report Text: KMCB 231353Z AUTO 05006KT 10SM CLR 13/07 A3015 RMK AO2 SLP205 T01280067
Loading
Personal Weather Stations






























Interactive Weather Map
Tropical Storm Tracking
New forecast layout! Learn more

10-Day Weather Forecast

Advertisements
Track Severe Weather on mobile